createdAt,value
2022-08-28T00:01:01.807Z,6.45
2022-08-28T00:03:47.660Z,5.93
2022-08-28T00:06:33.779Z,6.68
2022-08-28T00:09:19.978Z,6.35
2022-08-28T00:12:07.449Z,6.05
2022-08-28T00:14:53.528Z,5.80
2022-08-28T00:17:40.239Z,6.10
2022-08-28T00:20:28.343Z,6.00
2022-08-28T00:23:15.078Z,6.38
2022-08-28T00:26:01.114Z,6.10
2022-08-28T00:28:46.998Z,6.45
2022-08-28T00:31:34.191Z,6.00
2022-08-28T00:34:20.276Z,6.38
2022-08-28T00:37:18.798Z,6.65
2022-08-28T00:40:05.297Z,6.88
2022-08-28T00:42:52.394Z,6.70
2022-08-28T00:45:40.106Z,6.68
2022-08-28T00:48:26.386Z,6.30
2022-08-28T00:51:31.896Z,6.07
2022-08-28T00:54:19.435Z,6.72
2022-08-28T00:57:09.293Z,6.32
2022-08-28T00:59:55.344Z,5.93
2022-08-28T01:02:41.347Z,6.20
2022-08-28T01:05:28.963Z,6.25
2022-08-28T01:08:16.089Z,6.57
2022-08-28T01:11:05.828Z,6.50
2022-08-28T01:13:54.473Z,7.07
2022-08-28T01:16:42.843Z,6.40
2022-08-28T01:19:39.788Z,6.03
2022-08-28T01:22:59.279Z,6.43
2022-08-28T01:25:45.316Z,5.97
2022-08-28T01:28:31.320Z,7.00
2022-08-28T01:31:18.001Z,6.50
2022-08-28T01:34:04.873Z,6.75
2022-08-28T01:36:51.207Z,5.80
2022-08-28T01:39:37.332Z,6.45
2022-08-28T01:42:26.069Z,6.20
2022-08-28T01:45:15.345Z,6.38
2022-08-28T01:48:01.965Z,6.20
2022-08-28T01:50:48.417Z,6.57
2022-08-28T01:53:35.267Z,6.93
2022-08-28T01:56:21.487Z,6.50
2022-08-28T01:59:09.851Z,6.57
2022-08-28T02:01:55.744Z,6.90
2022-08-28T02:04:43.368Z,6.43
2022-08-28T02:07:32.403Z,6.63
2022-08-28T02:10:19.805Z,6.43
2022-08-28T02:13:07.146Z,6.03
2022-08-28T02:15:53.267Z,7.40
2022-08-28T02:18:39.228Z,6.68
2022-08-28T02:21:25.371Z,6.75
2022-08-28T02:24:11.579Z,6.30
2022-08-28T02:26:57.601Z,6.65
2022-08-28T02:29:44.162Z,6.80
2022-08-28T02:32:30.400Z,7.25
2022-08-28T02:35:18.862Z,7.32
2022-08-28T02:38:04.696Z,7.22
2022-08-28T02:40:52.309Z,6.65
2022-08-28T02:43:38.879Z,6.72
2022-08-28T02:46:25.260Z,6.95
2022-08-28T02:49:11.491Z,7.50
2022-08-28T02:51:58.424Z,6.72
2022-08-28T02:54:46.295Z,7.00
2022-08-28T02:57:32.546Z,7.00
2022-08-28T03:00:22.412Z,6.93
2022-08-28T03:03:08.723Z,7.32
2022-08-28T03:05:55.704Z,7.18
2022-08-28T03:08:42.655Z,7.10
2022-08-28T03:11:28.840Z,7.32
2022-08-28T03:14:14.822Z,7.35
2022-08-28T03:17:01.402Z,7.38
2022-08-28T03:19:47.386Z,7.53
2022-08-28T03:22:51.829Z,6.20
2022-08-28T03:25:38.287Z,6.78
2022-08-28T03:28:26.524Z,7.03
2022-08-28T03:31:15.243Z,7.43
2022-08-28T03:34:01.089Z,7.35
2022-08-28T03:36:47.142Z,7.53
2022-08-28T03:39:32.988Z,7.07
2022-08-28T03:42:18.917Z,7.88
2022-08-28T03:45:07.216Z,7.40
2022-08-28T03:47:53.113Z,7.55
2022-08-28T03:50:40.289Z,7.07
2022-08-28T03:53:29.108Z,6.97
2022-08-28T03:56:17.668Z,7.38
2022-08-28T03:59:05.299Z,7.38
2022-08-28T04:01:51.707Z,7.03
2022-08-28T04:04:37.512Z,7.47
2022-08-28T04:07:23.304Z,7.40
2022-08-28T04:10:09.543Z,6.80
2022-08-28T04:12:56.046Z,7.43
2022-08-28T04:15:42.390Z,7.65
2022-08-28T04:18:29.529Z,7.03
2022-08-28T04:21:23.704Z,7.13
2022-08-28T04:24:10.027Z,7.35
2022-08-28T04:26:56.330Z,7.15
2022-08-28T04:29:42.617Z,7.18
2022-08-28T04:32:28.502Z,7.95
2022-08-28T04:35:14.623Z,7.28
2022-08-28T04:38:02.474Z,7.22
2022-08-28T04:40:50.309Z,7.53
2022-08-28T04:43:36.767Z,7.40
2022-08-28T04:46:23.260Z,7.78
2022-08-28T04:49:09.244Z,7.78
2022-08-28T04:51:55.398Z,7.15
2022-08-28T04:54:41.498Z,7.75
2022-08-28T04:57:27.669Z,7.65
2022-08-28T05:00:14.115Z,7.60
2022-08-28T05:03:00.590Z,7.53
2022-08-28T05:05:52.593Z,8.27
2022-08-28T05:08:38.446Z,7.88
2022-08-28T05:11:34.373Z,7.63
2022-08-28T05:14:21.796Z,8.07
2022-08-28T05:17:08.124Z,7.78
2022-08-28T05:19:54.366Z,7.53
2022-08-28T05:22:40.229Z,7.90
2022-08-28T05:25:26.748Z,7.68
2022-08-28T05:28:13.185Z,7.43
2022-08-28T05:31:11.656Z,7.40
2022-08-28T05:33:59.473Z,7.13
2022-08-28T05:36:45.469Z,6.60
2022-08-28T05:39:31.269Z,7.97
2022-08-28T05:42:17.080Z,7.78
2022-08-28T05:45:03.205Z,7.20
2022-08-28T05:47:51.340Z,7.78
2022-08-28T05:50:39.252Z,7.30
2022-08-28T05:53:27.471Z,7.07
2022-08-28T05:56:16.376Z,7.45
2022-08-28T05:59:03.493Z,9.27
2022-08-28T06:01:50.296Z,7.93
2022-08-28T06:04:40.068Z,8.38
2022-08-28T06:07:26.251Z,8.77
2022-08-28T06:10:12.424Z,8.10
2022-08-28T06:12:58.135Z,8.98
2022-08-28T06:15:45.533Z,7.55
2022-08-28T06:18:31.846Z,7.80
2022-08-28T06:21:18.692Z,7.13
2022-08-28T06:24:05.264Z,7.43
2022-08-28T06:26:52.650Z,7.18
2022-08-28T06:29:42.335Z,7.47
2022-08-28T06:32:28.353Z,7.50
2022-08-28T06:35:14.478Z,6.47
2022-08-28T06:38:01.000Z,6.97
2022-08-28T06:40:49.800Z,7.03
2022-08-28T06:43:36.440Z,7.32
2022-08-28T06:53:19.547Z,6.50
2022-08-28T06:56:13.659Z,7.32
2022-08-28T06:59:12.051Z,7.72
2022-08-28T07:01:58.126Z,9.18
2022-08-28T07:04:44.268Z,8.07
2022-08-28T07:07:31.449Z,8.68
2022-08-28T07:10:18.410Z,10.27
2022-08-28T07:13:05.808Z,8.63
2022-08-28T07:15:51.937Z,8.13
2022-08-28T07:18:38.224Z,7.95
2022-08-28T07:21:24.461Z,7.40
2022-08-28T07:24:12.386Z,14.18
2022-08-28T07:26:58.555Z,10.00
2022-08-28T07:29:44.738Z,10.55
2022-08-28T07:32:30.708Z,8.13
2022-08-28T07:35:17.477Z,7.60
2022-08-28T07:38:03.689Z,7.60
2022-08-28T07:40:49.703Z,6.97
2022-08-28T07:43:54.261Z,8.40
2022-08-28T07:46:40.221Z,7.88
2022-08-28T07:49:27.341Z,7.38
2022-08-28T07:52:13.368Z,7.80
2022-08-28T07:54:59.301Z,7.05
2022-08-28T07:57:45.236Z,7.95
2022-08-28T08:00:31.074Z,6.90
2022-08-28T08:03:17.187Z,7.25
2022-08-28T08:06:05.829Z,6.85
2022-08-28T08:08:51.927Z,7.55
2022-08-28T08:11:38.344Z,7.72
2022-08-28T08:14:24.990Z,8.60
2022-08-28T08:17:11.433Z,7.80
2022-08-28T08:19:57.556Z,9.73
2022-08-28T08:22:43.624Z,8.18
2022-08-28T08:25:29.421Z,7.78
2022-08-28T08:28:21.648Z,7.50
2022-08-28T08:31:16.847Z,6.93
2022-08-28T08:34:04.638Z,7.60
2022-08-28T08:36:50.962Z,7.20
2022-08-28T08:39:37.163Z,6.70
2022-08-28T08:42:26.846Z,6.93
2022-08-28T08:45:15.561Z,7.32
2022-08-28T08:48:03.005Z,7.43
2022-08-28T08:50:49.286Z,6.63
2022-08-28T08:53:48.544Z,6.50
2022-08-28T08:56:35.301Z,7.63
2022-08-28T08:59:26.084Z,6.93
2022-08-28T09:02:19.616Z,7.28
2022-08-28T09:05:08.809Z,5.95
2022-08-28T09:08:02.541Z,6.05
2022-08-28T09:10:55.989Z,6.45
2022-08-28T09:13:55.239Z,6.50
2022-08-28T09:16:43.483Z,8.25
2022-08-28T09:19:30.352Z,8.38
2022-08-28T09:22:16.420Z,6.55
2022-08-28T09:25:05.248Z,6.40
2022-08-28T09:27:53.893Z,7.43
2022-08-28T09:30:41.014Z,8.10
2022-08-28T09:33:32.774Z,8.35
2022-08-28T09:36:31.678Z,6.93
2022-08-28T09:39:19.750Z,6.85
2022-08-28T09:42:33.159Z,7.13
2022-08-28T09:45:23.834Z,6.28
2022-08-28T09:48:24.320Z,8.27
2022-08-28T09:51:13.458Z,6.10
2022-08-28T09:54:24.080Z,5.82
2022-08-28T09:57:10.018Z,7.80
2022-08-28T09:59:56.539Z,6.70
2022-08-28T10:02:51.550Z,8.52
2022-08-28T10:06:02.103Z,7.78
2022-08-28T10:09:27.455Z,6.85
2022-08-28T10:12:28.538Z,6.85
2022-08-28T10:15:30.003Z,6.47
2022-08-28T10:18:31.373Z,10.30
2022-08-28T10:21:31.600Z,6.32
2022-08-28T10:24:26.477Z,6.22
2022-08-28T10:27:37.078Z,6.95
2022-08-28T10:30:24.597Z,5.80
2022-08-28T10:33:20.268Z,6.07
2022-08-28T10:36:27.138Z,6.53
2022-08-28T10:39:31.609Z,5.38
2022-08-28T10:42:36.166Z,5.75
2022-08-28T10:45:24.661Z,6.45
2022-08-28T10:48:27.418Z,6.03
2022-08-28T10:51:39.418Z,6.53
2022-08-28T10:54:37.394Z,6.90
2022-08-28T12:12:47.434Z,5.30
2022-08-28T15:47:32.182Z,6.93
2022-08-28T15:50:19.847Z,7.93
2022-08-28T15:53:06.751Z,7.82
2022-08-28T15:55:53.245Z,9.45
2022-08-28T15:58:39.489Z,6.07
2022-08-28T16:01:25.726Z,6.50
2022-08-28T16:04:12.230Z,8.10
2022-08-28T16:07:00.533Z,7.00
2022-08-28T16:09:46.952Z,6.60
2022-08-28T16:12:34.246Z,6.15
2022-08-28T16:15:21.479Z,5.75
2022-08-28T16:18:09.434Z,6.03
2022-08-28T16:20:55.824Z,6.43
2022-08-28T16:23:42.773Z,6.75
2022-08-28T16:26:29.030Z,6.88
2022-08-28T16:29:15.201Z,5.82
2022-08-28T16:32:01.383Z,6.05
2022-08-28T16:34:47.608Z,6.50
2022-08-28T16:37:36.324Z,6.45
2022-08-28T16:40:26.186Z,6.57
2022-08-28T16:43:12.937Z,6.75
2022-08-28T16:45:58.809Z,7.10
2022-08-28T16:48:45.579Z,6.63
2022-08-28T16:51:31.734Z,5.88
2022-08-28T16:54:18.371Z,7.00
2022-08-28T16:57:04.265Z,8.77
2022-08-28T16:59:53.081Z,6.85
2022-08-28T17:02:40.228Z,7.05
2022-08-28T17:05:26.574Z,7.80
2022-08-28T17:08:13.044Z,6.40
2022-08-28T17:10:59.462Z,6.50
2022-08-28T17:13:46.028Z,8.00
2022-08-28T17:16:32.026Z,5.88
2022-08-28T17:19:19.672Z,5.90
2022-08-28T17:22:27.156Z,5.45
2022-08-28T17:25:13.786Z,5.38
2022-08-28T17:28:00.651Z,5.38
2022-08-28T17:30:47.150Z,5.68
2022-08-28T17:33:35.893Z,5.05
2022-08-28T17:36:33.270Z,5.25
2022-08-28T17:39:20.525Z,6.63
2022-08-28T17:42:06.580Z,7.60
2022-08-28T17:44:52.536Z,7.68
2022-08-28T17:47:38.625Z,7.88
2022-08-28T17:50:24.833Z,8.50
2022-08-28T17:53:11.396Z,7.60
2022-08-28T17:55:57.395Z,7.40
2022-08-28T17:58:43.700Z,6.63
2022-08-28T18:01:29.866Z,6.28
2022-08-28T18:04:22.984Z,7.22
2022-08-28T18:07:10.251Z,7.82
2022-08-28T18:09:56.950Z,6.72
2022-08-28T18:12:42.906Z,6.70
2022-08-28T18:15:29.260Z,7.18
2022-08-28T18:18:16.119Z,7.45
2022-08-28T18:21:02.735Z,8.00
2022-08-28T18:23:48.886Z,7.90
2022-08-28T18:26:35.623Z,8.35
2022-08-28T18:29:22.097Z,8.02
2022-08-28T18:32:09.283Z,7.93
2022-08-28T18:34:55.522Z,7.55
2022-08-28T18:37:42.470Z,7.25
2022-08-28T18:40:28.957Z,7.47
2022-08-28T18:43:17.419Z,7.78
2022-08-28T18:46:04.776Z,6.97
2022-08-28T18:48:53.318Z,7.82
2022-08-28T18:51:41.190Z,7.72
2022-08-28T18:54:28.614Z,7.25
2022-08-28T18:57:15.290Z,8.68
2022-08-28T19:00:01.209Z,7.78
2022-08-28T20:01:37.815Z,7.55
2022-08-28T20:04:24.097Z,9.23
2022-08-28T20:07:11.970Z,9.45
2022-08-28T20:09:58.098Z,7.45
2022-08-28T20:12:48.384Z,6.82
2022-08-28T20:15:35.002Z,8.93
2022-08-28T20:18:21.924Z,7.28
2022-08-28T20:21:11.213Z,7.97
2022-08-28T20:23:57.206Z,8.02
2022-08-28T20:26:43.205Z,7.63
2022-08-28T20:29:29.470Z,6.75
2022-08-28T20:32:15.790Z,6.85
2022-08-28T20:35:03.445Z,7.00
2022-08-28T20:37:49.514Z,7.28
2022-08-28T20:40:36.203Z,7.03
2022-08-28T20:43:21.997Z,7.30
2022-08-28T20:46:08.983Z,8.38
2022-08-28T20:48:54.821Z,8.40
2022-08-28T20:51:56.722Z,8.60
2022-08-28T20:54:43.933Z,7.35
2022-08-28T20:57:29.716Z,6.68
2022-08-28T21:00:15.741Z,6.97
2022-08-28T21:03:02.021Z,6.78
2022-08-28T21:05:49.104Z,6.13
2022-08-28T21:08:35.164Z,6.50
2022-08-28T21:11:21.160Z,6.85
2022-08-28T21:14:07.054Z,5.72
2022-08-28T21:16:52.993Z,6.05
2022-08-28T21:19:40.640Z,6.60
2022-08-28T21:22:26.791Z,6.05
2022-08-28T21:25:13.640Z,6.38
2022-08-28T21:27:59.513Z,6.45
2022-08-28T21:30:50.375Z,6.05
2022-08-28T21:33:37.113Z,6.10
2022-08-28T21:36:23.209Z,6.55
2022-08-28T21:39:09.154Z,6.30
2022-08-28T21:41:55.897Z,6.57
2022-08-28T21:44:43.327Z,6.68
2022-08-28T21:47:38.048Z,6.65
2022-08-28T21:50:24.138Z,7.30
2022-08-28T21:53:09.849Z,6.60
2022-08-28T21:55:55.821Z,6.95
2022-08-28T21:58:41.800Z,6.55
2022-08-28T22:01:28.293Z,6.00
2022-08-28T22:04:14.297Z,6.50
2022-08-28T22:07:00.025Z,6.40
2022-08-28T22:09:46.309Z,6.20
2022-08-28T22:12:32.995Z,6.45
2022-08-28T22:15:19.395Z,6.22
2022-08-28T22:18:06.885Z,5.90
2022-08-28T22:21:11.627Z,5.82
2022-08-28T22:23:57.823Z,5.57
2022-08-28T22:26:44.557Z,5.93
2022-08-28T22:29:36.453Z,5.88
2022-08-28T22:32:25.664Z,5.80
2022-08-28T22:35:12.071Z,5.72
2022-08-28T22:37:58.032Z,5.47
2022-08-28T22:40:44.235Z,5.95
2022-08-28T22:43:30.174Z,5.45
2022-08-28T22:46:16.384Z,5.45
2022-08-28T22:49:02.724Z,5.78
2022-08-28T22:51:49.302Z,5.20
2022-08-28T22:54:35.189Z,5.68
2022-08-28T22:57:21.261Z,5.15
2022-08-28T23:00:13.267Z,5.32
2022-08-28T23:02:59.839Z,5.53
2022-08-28T23:05:45.739Z,5.30
2022-08-28T23:08:34.059Z,5.40
2022-08-28T23:11:19.953Z,5.90
2022-08-28T23:14:06.041Z,5.93
2022-08-28T23:16:55.030Z,5.03
2022-08-28T23:19:41.100Z,5.85
2022-08-28T23:22:28.379Z,5.70
2022-08-28T23:25:17.381Z,5.45
2022-08-28T23:28:06.576Z,5.82
2022-08-28T23:30:52.829Z,5.45
2022-08-28T23:33:38.682Z,5.80
2022-08-28T23:36:24.722Z,5.85
2022-08-28T23:39:10.615Z,5.35
2022-08-28T23:41:56.630Z,5.60
2022-08-28T23:44:42.568Z,5.93
2022-08-28T23:47:28.538Z,5.47
2022-08-28T23:50:21.084Z,5.80
2022-08-28T23:53:07.081Z,4.78
2022-08-28T23:55:54.046Z,5.55
2022-08-28T23:58:43.268Z,5.82
